sensor_id;sensor_type;location;lat;lon;timestamp;P1;durP1;ratioP1;P2;durP2;ratioP2
21038;SDS011;10678;51.002;4.786;2022-08-02T00:00:15;712.85;;;647.78;;
21038;SDS011;10678;51.002;4.786;2022-08-02T00:02:42;727.47;;;663.45;;
21038;SDS011;10678;51.002;4.786;2022-08-02T00:05:08;751.90;;;685.90;;
21038;SDS011;10678;51.002;4.786;2022-08-02T00:07:35;686.65;;;623.28;;
21038;SDS011;10678;51.002;4.786;2022-08-02T00:10:01;807.75;;;734.72;;
21038;SDS011;10678;51.002;4.786;2022-08-02T00:12:28;766.53;;;698.30;;
21038;SDS011;10678;51.002;4.786;2022-08-02T00:14:53;795.72;;;724.13;;
21038;SDS011;10678;51.002;4.786;2022-08-02T00:17:19;737.08;;;669.45;;
21038;SDS011;10678;51.002;4.786;2022-08-02T00:19:44;691.30;;;631.05;;
21038;SDS011;10678;51.002;4.786;2022-08-02T00:22:10;686.33;;;623.33;;
21038;SDS011;10678;51.002;4.786;2022-08-02T00:24:36;667.33;;;609.22;;
21038;SDS011;10678;51.002;4.786;2022-08-02T00:27:01;749.45;;;682.78;;
21038;SDS011;10678;51.002;4.786;2022-08-02T00:29:32;769.88;;;697.40;;
21038;SDS011;10678;51.002;4.786;2022-08-02T00:32:01;685.42;;;620.63;;
21038;SDS011;10678;51.002;4.786;2022-08-02T00:34:27;684.40;;;624.20;;
21038;SDS011;10678;51.002;4.786;2022-08-02T00:36:53;697.92;;;633.67;;
21038;SDS011;10678;51.002;4.786;2022-08-02T00:39:18;751.58;;;681.40;;
21038;SDS011;10678;51.002;4.786;2022-08-02T00:41:45;699.55;;;637.30;;
21038;SDS011;10678;51.002;4.786;2022-08-02T00:44:12;682.92;;;621.38;;
21038;SDS011;10678;51.002;4.786;2022-08-02T00:46:41;656.78;;;598.47;;
21038;SDS011;10678;51.002;4.786;2022-08-02T00:49:07;719.83;;;650.17;;
21038;SDS011;10678;51.002;4.786;2022-08-02T00:51:34;659.42;;;598.05;;
21038;SDS011;10678;51.002;4.786;2022-08-02T00:53:59;649.42;;;590.83;;
21038;SDS011;10678;51.002;4.786;2022-08-02T00:56:25;726.35;;;653.22;;
21038;SDS011;10678;51.002;4.786;2022-08-02T00:58:52;712.17;;;643.30;;
21038;SDS011;10678;51.002;4.786;2022-08-02T01:01:18;694.80;;;633.50;;
21038;SDS011;10678;51.002;4.786;2022-08-02T01:03:43;743.35;;;673.00;;
21038;SDS011;10678;51.002;4.786;2022-08-02T01:06:09;695.47;;;628.65;;
21038;SDS011;10678;51.002;4.786;2022-08-02T01:08:36;678.22;;;614.30;;
21038;SDS011;10678;51.002;4.786;2022-08-02T01:11:02;704.67;;;636.95;;
21038;SDS011;10678;51.002;4.786;2022-08-02T01:13:28;727.88;;;658.25;;
21038;SDS011;10678;51.002;4.786;2022-08-02T01:15:55;713.67;;;648.83;;
21038;SDS011;10678;51.002;4.786;2022-08-02T01:18:26;677.72;;;611.30;;
21038;SDS011;10678;51.002;4.786;2022-08-02T01:27:05;783.53;;;700.05;;
21038;SDS011;10678;51.002;4.786;2022-08-02T01:29:44;769.67;;;692.65;;
21038;SDS011;10678;51.002;4.786;2022-08-02T01:32:16;704.22;;;636.08;;
21038;SDS011;10678;51.002;4.786;2022-08-02T01:37:27;703.28;;;634.05;;
21038;SDS011;10678;51.002;4.786;2022-08-02T01:39:55;672.85;;;608.47;;
21038;SDS011;10678;51.002;4.786;2022-08-02T01:42:24;735.55;;;669.42;;
21038;SDS011;10678;51.002;4.786;2022-08-02T01:44:52;663.88;;;600.05;;
21038;SDS011;10678;51.002;4.786;2022-08-02T01:47:23;742.42;;;671.30;;
21038;SDS011;10678;51.002;4.786;2022-08-02T01:49:53;702.80;;;632.75;;
21038;SDS011;10678;51.002;4.786;2022-08-02T01:52:22;656.65;;;598.45;;
21038;SDS011;10678;51.002;4.786;2022-08-02T01:54:55;662.47;;;601.28;;
21038;SDS011;10678;51.002;4.786;2022-08-02T01:57:33;690.20;;;625.25;;
21038;SDS011;10678;51.002;4.786;2022-08-02T02:00:04;728.65;;;660.08;;
21038;SDS011;10678;51.002;4.786;2022-08-02T02:02:35;708.47;;;643.95;;
21038;SDS011;10678;51.002;4.786;2022-08-02T02:05:04;720.47;;;658.85;;
21038;SDS011;10678;51.002;4.786;2022-08-02T02:07:31;729.67;;;666.83;;
21038;SDS011;10678;51.002;4.786;2022-08-02T02:09:59;677.78;;;617.47;;
21038;SDS011;10678;51.002;4.786;2022-08-02T02:12:27;695.13;;;631.78;;
21038;SDS011;10678;51.002;4.786;2022-08-02T02:14:55;674.60;;;612.70;;
21038;SDS011;10678;51.002;4.786;2022-08-02T02:17:23;668.10;;;610.10;;
21038;SDS011;10678;51.002;4.786;2022-08-02T02:19:50;629.70;;;573.83;;
21038;SDS011;10678;51.002;4.786;2022-08-02T02:22:18;702.22;;;639.70;;
21038;SDS011;10678;51.002;4.786;2022-08-02T02:24:44;688.67;;;630.83;;
21038;SDS011;10678;51.002;4.786;2022-08-02T02:27:09;622.25;;;566.60;;
21038;SDS011;10678;51.002;4.786;2022-08-02T02:29:38;686.45;;;623.50;;
21038;SDS011;10678;51.002;4.786;2022-08-02T02:32:08;685.72;;;625.05;;
21038;SDS011;10678;51.002;4.786;2022-08-02T02:34:40;666.85;;;605.35;;
21038;SDS011;10678;51.002;4.786;2022-08-02T02:37:11;671.60;;;613.33;;
21038;SDS011;10678;51.002;4.786;2022-08-02T02:39:49;692.40;;;630.33;;
21038;SDS011;10678;51.002;4.786;2022-08-02T02:42:16;631.92;;;574.53;;
21038;SDS011;10678;51.002;4.786;2022-08-02T02:44:44;678.80;;;615.67;;
21038;SDS011;10678;51.002;4.786;2022-08-02T02:47:11;687.75;;;625.15;;
21038;SDS011;10678;51.002;4.786;2022-08-02T02:49:41;719.65;;;654.00;;
21038;SDS011;10678;51.002;4.786;2022-08-02T02:52:09;710.03;;;642.40;;
21038;SDS011;10678;51.002;4.786;2022-08-02T02:54:38;657.10;;;599.13;;
21038;SDS011;10678;51.002;4.786;2022-08-02T02:57:05;707.70;;;642.47;;
21038;SDS011;10678;51.002;4.786;2022-08-02T02:59:35;729.97;;;667.35;;
21038;SDS011;10678;51.002;4.786;2022-08-02T03:02:02;735.42;;;666.35;;
21038;SDS011;10678;51.002;4.786;2022-08-02T03:04:29;663.78;;;604.63;;
21038;SDS011;10678;51.002;4.786;2022-08-02T03:06:56;659.47;;;600.35;;
21038;SDS011;10678;51.002;4.786;2022-08-02T03:09:21;658.08;;;602.55;;
21038;SDS011;10678;51.002;4.786;2022-08-02T03:11:47;675.33;;;614.53;;
21038;SDS011;10678;51.002;4.786;2022-08-02T03:14:13;689.53;;;627.05;;
21038;SDS011;10678;51.002;4.786;2022-08-02T03:16:49;683.05;;;624.00;;
21038;SDS011;10678;51.002;4.786;2022-08-02T03:19:17;693.28;;;631.25;;
21038;SDS011;10678;51.002;4.786;2022-08-02T03:21:44;645.55;;;588.72;;
21038;SDS011;10678;51.002;4.786;2022-08-02T03:24:10;618.03;;;564.58;;
21038;SDS011;10678;51.002;4.786;2022-08-02T03:26:37;713.78;;;651.00;;
21038;SDS011;10678;51.002;4.786;2022-08-02T03:29:03;677.38;;;614.53;;
21038;SDS011;10678;51.002;4.786;2022-08-02T03:31:30;717.70;;;652.67;;
21038;SDS011;10678;51.002;4.786;2022-08-02T03:33:55;700.70;;;637.03;;
21038;SDS011;10678;51.002;4.786;2022-08-02T03:36:23;681.35;;;621.05;;
21038;SDS011;10678;51.002;4.786;2022-08-02T03:38:51;696.03;;;632.90;;
21038;SDS011;10678;51.002;4.786;2022-08-02T03:41:19;667.50;;;605.75;;
21038;SDS011;10678;51.002;4.786;2022-08-02T03:43:45;680.33;;;620.50;;
21038;SDS011;10678;51.002;4.786;2022-08-02T03:46:13;723.28;;;659.75;;
21038;SDS011;10678;51.002;4.786;2022-08-02T03:48:41;718.58;;;650.33;;
21038;SDS011;10678;51.002;4.786;2022-08-02T03:51:08;640.60;;;582.90;;
21038;SDS011;10678;51.002;4.786;2022-08-02T03:53:35;625.97;;;569.58;;
21038;SDS011;10678;51.002;4.786;2022-08-02T03:56:01;651.45;;;592.30;;
21038;SDS011;10678;51.002;4.786;2022-08-02T03:58:28;643.35;;;585.35;;
21038;SDS011;10678;51.002;4.786;2022-08-02T04:00:54;637.15;;;580.38;;
21038;SDS011;10678;51.002;4.786;2022-08-02T04:03:21;632.38;;;572.17;;
21038;SDS011;10678;51.002;4.786;2022-08-02T04:05:46;579.83;;;526.85;;
21038;SDS011;10678;51.002;4.786;2022-08-02T04:08:13;618.03;;;562.40;;
21038;SDS011;10678;51.002;4.786;2022-08-02T04:10:39;587.15;;;533.83;;
21038;SDS011;10678;51.002;4.786;2022-08-02T04:13:25;609.70;;;554.22;;
21038;SDS011;10678;51.002;4.786;2022-08-02T04:15:57;604.28;;;549.38;;
21038;SDS011;10678;51.002;4.786;2022-08-02T04:18:31;655.25;;;594.50;;
21038;SDS011;10678;51.002;4.786;2022-08-02T04:21:03;638.22;;;583.58;;
21038;SDS011;10678;51.002;4.786;2022-08-02T04:23:30;625.90;;;565.53;;
21038;SDS011;10678;51.002;4.786;2022-08-02T04:25:59;673.25;;;610.63;;
21038;SDS011;10678;51.002;4.786;2022-08-02T04:28:27;721.63;;;654.95;;
21038;SDS011;10678;51.002;4.786;2022-08-02T04:30:53;626.95;;;570.70;;
21038;SDS011;10678;51.002;4.786;2022-08-02T04:33:20;734.03;;;667.10;;
21038;SDS011;10678;51.002;4.786;2022-08-02T04:35:46;711.83;;;644.05;;
21038;SDS011;10678;51.002;4.786;2022-08-02T04:38:12;662.50;;;605.15;;
21038;SDS011;10678;51.002;4.786;2022-08-02T04:40:39;586.53;;;533.22;;
21038;SDS011;10678;51.002;4.786;2022-08-02T04:43:05;628.92;;;572.63;;
21038;SDS011;10678;51.002;4.786;2022-08-02T04:45:31;603.10;;;546.45;;
21038;SDS011;10678;51.002;4.786;2022-08-02T04:47:57;595.38;;;539.50;;
21038;SDS011;10678;51.002;4.786;2022-08-02T04:50:22;589.03;;;533.05;;
21038;SDS011;10678;51.002;4.786;2022-08-02T04:52:48;685.40;;;622.60;;
21038;SDS011;10678;51.002;4.786;2022-08-02T04:55:14;662.58;;;601.95;;
21038;SDS011;10678;51.002;4.786;2022-08-02T04:57:39;654.70;;;591.63;;
21038;SDS011;10678;51.002;4.786;2022-08-02T05:00:21;646.10;;;587.00;;
21038;SDS011;10678;51.002;4.786;2022-08-02T05:02:47;617.83;;;561.67;;
21038;SDS011;10678;51.002;4.786;2022-08-02T05:05:13;640.05;;;580.70;;
21038;SDS011;10678;51.002;4.786;2022-08-02T05:07:39;559.78;;;508.30;;
21038;SDS011;10678;51.002;4.786;2022-08-02T05:10:05;690.63;;;624.78;;
21038;SDS011;10678;51.002;4.786;2022-08-02T05:12:31;635.20;;;573.50;;
21038;SDS011;10678;51.002;4.786;2022-08-02T05:14:56;514.88;;;463.52;;
21038;SDS011;10678;51.002;4.786;2022-08-02T05:17:22;603.08;;;546.30;;
21038;SDS011;10678;51.002;4.786;2022-08-02T05:19:48;596.65;;;539.08;;
21038;SDS011;10678;51.002;4.786;2022-08-02T05:22:13;693.38;;;624.72;;
21038;SDS011;10678;51.002;4.786;2022-08-02T05:24:39;572.53;;;516.38;;
21038;SDS011;10678;51.002;4.786;2022-08-02T05:27:04;616.00;;;557.53;;
21038;SDS011;10678;51.002;4.786;2022-08-02T05:29:30;681.83;;;613.13;;
21038;SDS011;10678;51.002;4.786;2022-08-02T05:31:56;638.97;;;579.17;;
21038;SDS011;10678;51.002;4.786;2022-08-02T05:34:21;639.67;;;578.63;;
21038;SDS011;10678;51.002;4.786;2022-08-02T05:36:47;648.90;;;587.72;;
21038;SDS011;10678;51.002;4.786;2022-08-02T05:39:12;724.00;;;657.47;;
21038;SDS011;10678;51.002;4.786;2022-08-02T05:41:38;591.17;;;532.70;;
21038;SDS011;10678;51.002;4.786;2022-08-02T05:44:04;572.33;;;518.28;;
21038;SDS011;10678;51.002;4.786;2022-08-02T05:46:29;521.28;;;467.42;;
21038;SDS011;10678;51.002;4.786;2022-08-02T05:48:55;528.40;;;476.92;;
21038;SDS011;10678;51.002;4.786;2022-08-02T05:51:22;493.40;;;441.27;;
21038;SDS011;10678;51.002;4.786;2022-08-02T05:54:09;528.22;;;475.88;;
21038;SDS011;10678;51.002;4.786;2022-08-02T05:56:44;591.33;;;532.55;;
21038;SDS011;10678;51.002;4.786;2022-08-02T05:59:31;598.72;;;542.75;;
21038;SDS011;10678;51.002;4.786;2022-08-02T06:01:59;590.17;;;531.30;;
21038;SDS011;10678;51.002;4.786;2022-08-02T06:04:43;654.33;;;587.33;;
21038;SDS011;10678;51.002;4.786;2022-08-02T06:07:27;615.40;;;554.42;;
21038;SDS011;10678;51.002;4.786;2022-08-02T06:09:54;724.15;;;649.97;;
21038;SDS011;10678;51.002;4.786;2022-08-02T06:12:22;553.05;;;498.08;;
21038;SDS011;10678;51.002;4.786;2022-08-02T06:14:53;624.97;;;560.17;;
21038;SDS011;10678;51.002;4.786;2022-08-02T06:17:19;591.42;;;531.65;;
21038;SDS011;10678;51.002;4.786;2022-08-02T06:19:45;464.70;;;419.02;;
21038;SDS011;10678;51.002;4.786;2022-08-02T06:22:12;478.08;;;429.17;;
21038;SDS011;10678;51.002;4.786;2022-08-02T06:24:43;711.70;;;634.10;;
21038;SDS011;10678;51.002;4.786;2022-08-02T06:27:13;817.70;;;722.05;;
21038;SDS011;10678;51.002;4.786;2022-08-02T06:29:40;767.28;;;630.17;;
21038;SDS011;10678;51.002;4.786;2022-08-02T06:32:07;777.65;;;662.20;;
21038;SDS011;10678;51.002;4.786;2022-08-02T06:34:39;921.50;;;784.08;;
21038;SDS011;10678;51.002;4.786;2022-08-02T06:37:13;915.10;;;764.72;;
21038;SDS011;10678;51.002;4.786;2022-08-02T06:40:41;1281.28;;;834.20;;
21038;SDS011;10678;51.002;4.786;2022-08-02T06:42:43;969.40;;;812.90;;
21038;SDS011;10678;51.002;4.786;2022-08-02T06:45:16;965.03;;;788.03;;
21038;SDS011;10678;51.002;4.786;2022-08-02T06:47:42;1093.57;;;842.08;;
21038;SDS011;10678;51.002;4.786;2022-08-02T06:50:08;917.08;;;811.67;;
21038;SDS011;10678;51.002;4.786;2022-08-02T06:52:34;1435.68;;;885.78;;
21038;SDS011;10678;51.002;4.786;2022-08-02T06:55:01;982.22;;;829.30;;
21038;SDS011;10678;51.002;4.786;2022-08-02T06:57:29;1523.30;;;903.15;;
21038;SDS011;10678;51.002;4.786;2022-08-02T06:59:56;1970.50;;;940.05;;
21038;SDS011;10678;51.002;4.786;2022-08-02T07:02:22;1648.68;;;922.15;;
21038;SDS011;10678;51.002;4.786;2022-08-02T07:04:48;1999.90;;;999.90;;
21038;SDS011;10678;51.002;4.786;2022-08-02T07:07:14;1999.90;;;957.05;;
21038;SDS011;10678;51.002;4.786;2022-08-02T07:09:40;1798.85;;;920.33;;
21038;SDS011;10678;51.002;4.786;2022-08-02T07:12:05;1999.90;;;974.60;;
21038;SDS011;10678;51.002;4.786;2022-08-02T07:14:31;1999.90;;;998.85;;
21038;SDS011;10678;51.002;4.786;2022-08-02T07:16:57;1999.90;;;999.90;;
21038;SDS011;10678;51.002;4.786;2022-08-02T07:19:22;1999.90;;;932.67;;
21038;SDS011;10678;51.002;4.786;2022-08-02T07:21:48;1999.90;;;890.25;;
21038;SDS011;10678;51.002;4.786;2022-08-02T07:24:13;1999.90;;;913.03;;
21038;SDS011;10678;51.002;4.786;2022-08-02T07:26:39;1999.90;;;997.90;;
21038;SDS011;10678;51.002;4.786;2022-08-02T07:29:04;1999.90;;;876.15;;
21038;SDS011;10678;51.002;4.786;2022-08-02T07:31:30;1999.90;;;955.28;;
21038;SDS011;10678;51.002;4.786;2022-08-02T07:33:56;1999.90;;;999.90;;
21038;SDS011;10678;51.002;4.786;2022-08-02T07:36:21;1999.90;;;999.90;;
21038;SDS011;10678;51.002;4.786;2022-08-02T07:38:47;1999.90;;;994.50;;
21038;SDS011;10678;51.002;4.786;2022-08-02T07:41:13;1849.10;;;995.30;;
21038;SDS011;10678;51.002;4.786;2022-08-02T07:43:39;1999.90;;;800.42;;
21038;SDS011;10678;51.002;4.786;2022-08-02T07:46:05;1999.90;;;608.78;;
21038;SDS011;10678;51.002;4.786;2022-08-02T07:48:30;1999.90;;;973.17;;
21038;SDS011;10678;51.002;4.786;2022-08-02T07:50:56;1999.90;;;654.95;;
21038;SDS011;10678;51.002;4.786;2022-08-02T07:53:21;1999.90;;;348.95;;
21038;SDS011;10678;51.002;4.786;2022-08-02T07:55:47;1969.30;;;485.90;;
21038;SDS011;10678;51.002;4.786;2022-08-02T07:58:13;1999.90;;;652.58;;
21038;SDS011;10678;51.002;4.786;2022-08-02T08:00:43;1999.90;;;365.65;;
21038;SDS011;10678;51.002;4.786;2022-08-02T08:03:09;1999.90;;;811.30;;
21038;SDS011;10678;51.002;4.786;2022-08-02T08:05:35;1999.90;;;999.90;;
21038;SDS011;10678;51.002;4.786;2022-08-02T08:08:00;996.25;;;125.85;;
21038;SDS011;10678;51.002;4.786;2022-08-02T08:10:26;1999.90;;;999.90;;
21038;SDS011;10678;51.002;4.786;2022-08-02T08:12:52;1999.90;;;999.90;;
21038;SDS011;10678;51.002;4.786;2022-08-02T08:15:19;1999.90;;;999.90;;
21038;SDS011;10678;51.002;4.786;2022-08-02T08:17:45;1999.90;;;999.90;;
21038;SDS011;10678;51.002;4.786;2022-08-02T08:20:10;1621.10;;;763.55;;
21038;SDS011;10678;51.002;4.786;2022-08-02T08:22:36;1999.90;;;999.90;;
21038;SDS011;10678;51.002;4.786;2022-08-02T08:25:02;1999.90;;;999.90;;
21038;SDS011;10678;51.002;4.786;2022-08-02T08:27:28;1999.90;;;999.90;;
21038;SDS011;10678;51.002;4.786;2022-08-02T08:29:53;1999.90;;;999.90;;
21038;SDS011;10678;51.002;4.786;2022-08-02T08:32:19;1999.90;;;999.90;;
21038;SDS011;10678;51.002;4.786;2022-08-02T08:34:45;1999.90;;;999.90;;
21038;SDS011;10678;51.002;4.786;2022-08-02T08:37:11;1999.90;;;999.90;;
21038;SDS011;10678;51.002;4.786;2022-08-02T08:39:38;1999.90;;;999.90;;
21038;SDS011;10678;51.002;4.786;2022-08-02T08:42:06;1999.90;;;999.90;;
21038;SDS011;10678;51.002;4.786;2022-08-02T08:44:33;1999.90;;;999.90;;
21038;SDS011;10678;51.002;4.786;2022-08-02T08:47:00;1999.90;;;999.90;;
21038;SDS011;10678;51.002;4.786;2022-08-02T08:49:32;1999.90;;;999.90;;
21038;SDS011;10678;51.002;4.786;2022-08-02T08:52:05;1999.90;;;999.90;;
21038;SDS011;10678;51.002;4.786;2022-08-02T08:54:31;1999.90;;;999.90;;
21038;SDS011;10678;51.002;4.786;2022-08-02T08:56:58;1999.90;;;999.90;;
21038;SDS011;10678;51.002;4.786;2022-08-02T08:59:28;1999.90;;;999.90;;
21038;SDS011;10678;51.002;4.786;2022-08-02T09:01:53;1999.90;;;999.90;;
21038;SDS011;10678;51.002;4.786;2022-08-02T09:04:20;1999.90;;;999.90;;
21038;SDS011;10678;51.002;4.786;2022-08-02T09:06:46;1999.90;;;999.90;;
21038;SDS011;10678;51.002;4.786;2022-08-02T09:09:12;1999.90;;;999.90;;
21038;SDS011;10678;51.002;4.786;2022-08-02T09:11:37;1999.90;;;999.90;;
21038;SDS011;10678;51.002;4.786;2022-08-02T09:14:03;1999.90;;;999.90;;
21038;SDS011;10678;51.002;4.786;2022-08-02T09:19:18;1999.90;;;999.90;;
21038;SDS011;10678;51.002;4.786;2022-08-02T09:21:47;1999.90;;;999.90;;
21038;SDS011;10678;51.002;4.786;2022-08-02T09:24:18;1999.90;;;999.90;;
21038;SDS011;10678;51.002;4.786;2022-08-02T09:26:45;1999.90;;;999.90;;
21038;SDS011;10678;51.002;4.786;2022-08-02T09:29:12;1999.90;;;999.90;;
21038;SDS011;10678;51.002;4.786;2022-08-02T09:31:39;1999.90;;;999.90;;
21038;SDS011;10678;51.002;4.786;2022-08-02T09:34:05;1999.90;;;999.90;;
21038;SDS011;10678;51.002;4.786;2022-08-02T09:36:41;1999.90;;;999.90;;
21038;SDS011;10678;51.002;4.786;2022-08-02T09:39:14;1999.90;;;999.90;;
21038;SDS011;10678;51.002;4.786;2022-08-02T09:41:41;1999.90;;;999.90;;
21038;SDS011;10678;51.002;4.786;2022-08-02T09:44:10;1999.90;;;999.90;;
21038;SDS011;10678;51.002;4.786;2022-08-02T09:49:09;1999.90;;;999.90;;
21038;SDS011;10678;51.002;4.786;2022-08-02T09:51:48;1999.90;;;999.90;;
21038;SDS011;10678;51.002;4.786;2022-08-02T09:54:16;1999.90;;;999.90;;
21038;SDS011;10678;51.002;4.786;2022-08-02T09:56:51;1999.90;;;999.90;;
21038;SDS011;10678;51.002;4.786;2022-08-02T09:59:19;1999.90;;;999.90;;
21038;SDS011;10678;51.002;4.786;2022-08-02T10:01:48;1999.90;;;999.90;;
21038;SDS011;10678;51.002;4.786;2022-08-02T10:04:14;1999.90;;;999.90;;
21038;SDS011;10678;51.002;4.786;2022-08-02T10:06:45;1999.90;;;999.90;;
21038;SDS011;10678;51.002;4.786;2022-08-02T10:09:11;1999.90;;;999.90;;
21038;SDS011;10678;51.002;4.786;2022-08-02T10:11:37;1999.90;;;999.90;;
21038;SDS011;10678;51.002;4.786;2022-08-02T10:14:05;1999.90;;;999.90;;
21038;SDS011;10678;51.002;4.786;2022-08-02T10:16:32;1999.90;;;999.90;;
21038;SDS011;10678;51.002;4.786;2022-08-02T10:19:00;1999.90;;;999.90;;
21038;SDS011;10678;51.002;4.786;2022-08-02T10:21:32;1999.90;;;999.90;;
21038;SDS011;10678;51.002;4.786;2022-08-02T10:24:19;1999.90;;;999.90;;
21038;SDS011;10678;51.002;4.786;2022-08-02T10:26:47;1999.90;;;999.90;;
21038;SDS011;10678;51.002;4.786;2022-08-02T10:29:14;1999.90;;;999.90;;
21038;SDS011;10678;51.002;4.786;2022-08-02T10:31:58;1999.90;;;999.90;;
21038;SDS011;10678;51.002;4.786;2022-08-02T10:34:35;1999.90;;;999.90;;
21038;SDS011;10678;51.002;4.786;2022-08-02T10:37:07;1999.90;;;999.90;;
21038;SDS011;10678;51.002;4.786;2022-08-02T10:39:40;1999.90;;;999.90;;
21038;SDS011;10678;51.002;4.786;2022-08-02T10:42:07;1999.90;;;999.90;;
21038;SDS011;10678;51.002;4.786;2022-08-02T10:44:34;1999.90;;;999.90;;
21038;SDS011;10678;51.002;4.786;2022-08-02T10:52:28;1999.90;;;999.90;;
21038;SDS011;10678;51.002;4.786;2022-08-02T10:57:33;1999.90;;;999.90;;
21038;SDS011;10678;51.002;4.786;2022-08-02T11:00:02;1999.90;;;999.90;;
21038;SDS011;10678;51.002;4.786;2022-08-02T11:02:43;1999.90;;;999.90;;
21038;SDS011;10678;51.002;4.786;2022-08-02T11:05:14;1999.90;;;999.90;;
21038;SDS011;10678;51.002;4.786;2022-08-02T11:07:46;1999.90;;;999.90;;
21038;SDS011;10678;51.002;4.786;2022-08-02T11:13:04;1999.90;;;999.90;;
21038;SDS011;10678;51.002;4.786;2022-08-02T11:21:23;1999.90;;;999.90;;
21038;SDS011;10678;51.002;4.786;2022-08-02T11:24:22;1999.90;;;999.90;;
21038;SDS011;10678;51.002;4.786;2022-08-02T11:26:53;1999.90;;;999.90;;
21038;SDS011;10678;51.002;4.786;2022-08-02T11:29:20;1999.90;;;999.90;;
21038;SDS011;10678;51.002;4.786;2022-08-02T11:31:46;1999.90;;;999.90;;
21038;SDS011;10678;51.002;4.786;2022-08-02T11:34:12;1999.90;;;999.90;;
21038;SDS011;10678;51.002;4.786;2022-08-02T11:36:46;1999.90;;;999.90;;
21038;SDS011;10678;51.002;4.786;2022-08-02T11:39:15;1999.90;;;999.90;;
21038;SDS011;10678;51.002;4.786;2022-08-02T11:41:42;1999.90;;;999.90;;
21038;SDS011;10678;51.002;4.786;2022-08-02T11:44:12;1999.90;;;999.90;;
21038;SDS011;10678;51.002;4.786;2022-08-02T11:46:38;1999.90;;;999.90;;
21038;SDS011;10678;51.002;4.786;2022-08-02T11:49:15;1999.90;;;999.90;;
21038;SDS011;10678;51.002;4.786;2022-08-02T11:54:25;1999.90;;;999.90;;
21038;SDS011;10678;51.002;4.786;2022-08-02T11:57:07;1999.90;;;999.90;;
21038;SDS011;10678;51.002;4.786;2022-08-02T11:59:46;1999.90;;;999.90;;
21038;SDS011;10678;51.002;4.786;2022-08-02T12:02:13;1999.90;;;999.90;;
21038;SDS011;10678;51.002;4.786;2022-08-02T12:04:40;1999.90;;;999.90;;
21038;SDS011;10678;51.002;4.786;2022-08-02T12:07:06;1999.90;;;999.90;;
21038;SDS011;10678;51.002;4.786;2022-08-02T12:09:33;1999.90;;;999.90;;
21038;SDS011;10678;51.002;4.786;2022-08-02T12:12:00;1999.90;;;999.90;;
21038;SDS011;10678;51.002;4.786;2022-08-02T12:14:27;1999.90;;;999.90;;
21038;SDS011;10678;51.002;4.786;2022-08-02T12:16:55;1999.90;;;999.90;;
21038;SDS011;10678;51.002;4.786;2022-08-02T12:19:40;1999.90;;;999.90;;
21038;SDS011;10678;51.002;4.786;2022-08-02T12:24:44;1999.90;;;999.90;;
21038;SDS011;10678;51.002;4.786;2022-08-02T12:27:28;1999.90;;;999.90;;
21038;SDS011;10678;51.002;4.786;2022-08-02T12:29:57;1999.90;;;999.90;;
21038;SDS011;10678;51.002;4.786;2022-08-02T12:32:26;1999.90;;;999.90;;
21038;SDS011;10678;51.002;4.786;2022-08-02T12:37:42;1999.90;;;999.90;;
21038;SDS011;10678;51.002;4.786;2022-08-02T12:42:45;1999.90;;;999.90;;
21038;SDS011;10678;51.002;4.786;2022-08-02T12:45:11;1999.90;;;999.90;;
21038;SDS011;10678;51.002;4.786;2022-08-02T12:47:46;1999.90;;;999.90;;
21038;SDS011;10678;51.002;4.786;2022-08-02T12:50:15;1999.90;;;999.90;;
21038;SDS011;10678;51.002;4.786;2022-08-02T12:52:44;1999.90;;;999.90;;
21038;SDS011;10678;51.002;4.786;2022-08-02T12:58:00;1999.90;;;999.90;;
21038;SDS011;10678;51.002;4.786;2022-08-02T13:00:27;1999.90;;;999.90;;
21038;SDS011;10678;51.002;4.786;2022-08-02T13:02:55;1999.90;;;999.90;;
21038;SDS011;10678;51.002;4.786;2022-08-02T13:05:21;1999.90;;;999.90;;
21038;SDS011;10678;51.002;4.786;2022-08-02T13:07:47;1999.90;;;999.90;;
21038;SDS011;10678;51.002;4.786;2022-08-02T13:10:12;1999.90;;;999.90;;
21038;SDS011;10678;51.002;4.786;2022-08-02T13:12:38;1999.90;;;999.90;;
21038;SDS011;10678;51.002;4.786;2022-08-02T13:15:05;1999.90;;;999.90;;
21038;SDS011;10678;51.002;4.786;2022-08-02T13:17:31;1999.90;;;999.90;;
21038;SDS011;10678;51.002;4.786;2022-08-02T13:19:57;1999.90;;;999.90;;
21038;SDS011;10678;51.002;4.786;2022-08-02T13:22:23;1999.90;;;999.90;;
21038;SDS011;10678;51.002;4.786;2022-08-02T13:24:48;1999.90;;;999.90;;
21038;SDS011;10678;51.002;4.786;2022-08-02T13:27:15;1999.90;;;999.90;;
21038;SDS011;10678;51.002;4.786;2022-08-02T13:29:42;1999.90;;;999.90;;
21038;SDS011;10678;51.002;4.786;2022-08-02T13:32:07;1999.90;;;999.90;;
21038;SDS011;10678;51.002;4.786;2022-08-02T13:34:33;1999.90;;;999.90;;
21038;SDS011;10678;51.002;4.786;2022-08-02T13:36:59;1999.90;;;999.90;;
21038;SDS011;10678;51.002;4.786;2022-08-02T13:39:25;1999.90;;;999.90;;
21038;SDS011;10678;51.002;4.786;2022-08-02T13:41:50;1999.90;;;999.90;;
21038;SDS011;10678;51.002;4.786;2022-08-02T13:44:16;1999.90;;;999.90;;
21038;SDS011;10678;51.002;4.786;2022-08-02T13:46:42;1999.90;;;999.90;;
21038;SDS011;10678;51.002;4.786;2022-08-02T13:49:08;1999.90;;;999.90;;
21038;SDS011;10678;51.002;4.786;2022-08-02T13:51:33;1999.90;;;999.90;;
21038;SDS011;10678;51.002;4.786;2022-08-02T13:53:59;1999.90;;;999.90;;
21038;SDS011;10678;51.002;4.786;2022-08-02T13:56:24;1999.90;;;999.90;;
21038;SDS011;10678;51.002;4.786;2022-08-02T13:58:51;1999.90;;;999.90;;
21038;SDS011;10678;51.002;4.786;2022-08-02T14:01:17;1999.90;;;999.90;;
21038;SDS011;10678;51.002;4.786;2022-08-02T14:03:43;1999.90;;;999.90;;
21038;SDS011;10678;51.002;4.786;2022-08-02T14:06:08;1999.90;;;999.90;;
21038;SDS011;10678;51.002;4.786;2022-08-02T14:08:34;1999.90;;;999.90;;
21038;SDS011;10678;51.002;4.786;2022-08-02T14:11:02;1999.90;;;999.90;;
21038;SDS011;10678;51.002;4.786;2022-08-02T14:13:28;1999.90;;;999.90;;
21038;SDS011;10678;51.002;4.786;2022-08-02T14:15:53;1999.90;;;999.90;;
21038;SDS011;10678;51.002;4.786;2022-08-02T14:18:20;1999.90;;;999.90;;
21038;SDS011;10678;51.002;4.786;2022-08-02T14:20:46;1999.90;;;999.90;;
21038;SDS011;10678;51.002;4.786;2022-08-02T14:23:11;1999.90;;;999.90;;
21038;SDS011;10678;51.002;4.786;2022-08-02T14:25:37;1999.90;;;999.90;;
21038;SDS011;10678;51.002;4.786;2022-08-02T14:28:03;1999.90;;;999.90;;
21038;SDS011;10678;51.002;4.786;2022-08-02T14:30:29;1999.90;;;999.90;;
21038;SDS011;10678;51.002;4.786;2022-08-02T14:32:55;1999.90;;;999.90;;
21038;SDS011;10678;51.002;4.786;2022-08-02T14:35:20;1070.72;;;518.67;;
21038;SDS011;10678;51.002;4.786;2022-08-02T14:37:46;1653.43;;;786.50;;
21038;SDS011;10678;51.002;4.786;2022-08-02T14:40:12;1234.38;;;429.30;;